sensor_id;sensor_type;location;lat;lon;timestamp;temperature;humidity
3408;DHT22;1717;50.240;8.406;2022-10-17T00:01:47;16.50;99.90
3408;DHT22;1717;50.240;8.406;2022-10-17T00:04:14;16.50;99.90
3408;DHT22;1717;50.240;8.406;2022-10-17T00:06:42;16.50;99.90
3408;DHT22;1717;50.240;8.406;2022-10-17T00:09:09;16.50;99.90
3408;DHT22;1717;50.240;8.406;2022-10-17T00:11:36;16.50;99.90
3408;DHT22;1717;50.240;8.406;2022-10-17T00:14:03;16.50;99.90
3408;DHT22;1717;50.240;8.406;2022-10-17T00:16:32;16.50;99.90
3408;DHT22;1717;50.240;8.406;2022-10-17T00:19:01;16.50;99.90
3408;DHT22;1717;50.240;8.406;2022-10-17T00:21:28;16.50;99.90
3408;DHT22;1717;50.240;8.406;2022-10-17T00:23:56;16.50;99.90
3408;DHT22;1717;50.240;8.406;2022-10-17T00:26:24;16.50;99.90
3408;DHT22;1717;50.240;8.406;2022-10-17T00:28:52;16.40;99.90
3408;DHT22;1717;50.240;8.406;2022-10-17T00:31:20;16.50;99.90
3408;DHT22;1717;50.240;8.406;2022-10-17T00:33:48;16.50;99.90
3408;DHT22;1717;50.240;8.406;2022-10-17T00:36:17;16.40;99.90
3408;DHT22;1717;50.240;8.406;2022-10-17T00:38:45;16.40;99.90
3408;DHT22;1717;50.240;8.406;2022-10-17T00:41:17;16.40;99.90
3408;DHT22;1717;50.240;8.406;2022-10-17T00:43:54;16.40;99.90
3408;DHT22;1717;50.240;8.406;2022-10-17T00:46:22;16.40;99.90
3408;DHT22;1717;50.240;8.406;2022-10-17T00:48:51;16.40;99.90
3408;DHT22;1717;50.240;8.406;2022-10-17T00:51:22;16.40;99.90
3408;DHT22;1717;50.240;8.406;2022-10-17T00:53:50;16.40;99.90
3408;DHT22;1717;50.240;8.406;2022-10-17T00:56:20;16.40;99.90
3408;DHT22;1717;50.240;8.406;2022-10-17T00:58:47;16.40;99.90
3408;DHT22;1717;50.240;8.406;2022-10-17T01:01:14;16.40;99.90
3408;DHT22;1717;50.240;8.406;2022-10-17T01:03:41;16.40;99.90
3408;DHT22;1717;50.240;8.406;2022-10-17T01:06:08;16.40;99.90
3408;DHT22;1717;50.240;8.406;2022-10-17T01:08:35;16.40;99.90
3408;DHT22;1717;50.240;8.406;2022-10-17T01:11:07;16.40;99.90
3408;DHT22;1717;50.240;8.406;2022-10-17T01:13:44;16.40;99.90
3408;DHT22;1717;50.240;8.406;2022-10-17T01:16:16;16.40;99.90
3408;DHT22;1717;50.240;8.406;2022-10-17T01:18:53;16.40;99.90
3408;DHT22;1717;50.240;8.406;2022-10-17T01:21:30;16.40;99.90
3408;DHT22;1717;50.240;8.406;2022-10-17T01:24:35;16.30;99.90
3408;DHT22;1717;50.240;8.406;2022-10-17T01:27:24;16.30;99.90
3408;DHT22;1717;50.240;8.406;2022-10-17T01:32:57;16.30;99.90
3408;DHT22;1717;50.240;8.406;2022-10-17T01:35:28;16.30;99.90
3408;DHT22;1717;50.240;8.406;2022-10-17T01:37:58;16.30;99.90
3408;DHT22;1717;50.240;8.406;2022-10-17T01:40:31;16.30;99.90
3408;DHT22;1717;50.240;8.406;2022-10-17T01:43:04;16.30;99.90
3408;DHT22;1717;50.240;8.406;2022-10-17T01:45:37;16.30;99.90
3408;DHT22;1717;50.240;8.406;2022-10-17T01:48:13;16.30;99.90
3408;DHT22;1717;50.240;8.406;2022-10-17T01:50:44;16.40;99.90
3408;DHT22;1717;50.240;8.406;2022-10-17T01:53:17;16.40;99.90
3408;DHT22;1717;50.240;8.406;2022-10-17T01:55:45;16.40;99.90
3408;DHT22;1717;50.240;8.406;2022-10-17T01:58:19;16.50;99.90
3408;DHT22;1717;50.240;8.406;2022-10-17T02:00:47;16.50;99.90
3408;DHT22;1717;50.240;8.406;2022-10-17T02:03:18;16.50;99.90
3408;DHT22;1717;50.240;8.406;2022-10-17T02:05:47;16.60;99.90
3408;DHT22;1717;50.240;8.406;2022-10-17T02:08:24;16.60;99.90
3408;DHT22;1717;50.240;8.406;2022-10-17T02:10:55;16.60;99.90
3408;DHT22;1717;50.240;8.406;2022-10-17T02:13:30;16.60;99.90
3408;DHT22;1717;50.240;8.406;2022-10-17T02:16:13;16.50;99.90
3408;DHT22;1717;50.240;8.406;2022-10-17T02:19:01;16.40;99.90
3408;DHT22;1717;50.240;8.406;2022-10-17T02:21:38;16.50;99.90
3408;DHT22;1717;50.240;8.406;2022-10-17T02:24:19;16.50;99.90
3408;DHT22;1717;50.240;8.406;2022-10-17T02:26:54;16.50;99.90
3408;DHT22;1717;50.240;8.406;2022-10-17T02:29:25;16.50;99.90
3408;DHT22;1717;50.240;8.406;2022-10-17T02:31:57;16.50;99.90
3408;DHT22;1717;50.240;8.406;2022-10-17T02:34:30;16.50;99.90
3408;DHT22;1717;50.240;8.406;2022-10-17T02:37:00;16.60;99.90
3408;DHT22;1717;50.240;8.406;2022-10-17T02:39:28;16.50;99.90
3408;DHT22;1717;50.240;8.406;2022-10-17T02:41:59;16.50;99.90
3408;DHT22;1717;50.240;8.406;2022-10-17T02:44:29;16.60;99.90
3408;DHT22;1717;50.240;8.406;2022-10-17T02:47:00;16.60;99.90
3408;DHT22;1717;50.240;8.406;2022-10-17T02:49:33;16.60;99.90
3408;DHT22;1717;50.240;8.406;2022-10-17T02:52:06;16.60;99.90
3408;DHT22;1717;50.240;8.406;2022-10-17T02:54:38;16.60;99.90
3408;DHT22;1717;50.240;8.406;2022-10-17T02:57:09;16.60;99.90
3408;DHT22;1717;50.240;8.406;2022-10-17T02:59:38;16.60;99.90
3408;DHT22;1717;50.240;8.406;2022-10-17T03:02:07;16.60;99.90
3408;DHT22;1717;50.240;8.406;2022-10-17T03:04:35;16.60;99.90
3408;DHT22;1717;50.240;8.406;2022-10-17T03:07:02;16.60;99.90
3408;DHT22;1717;50.240;8.406;2022-10-17T03:09:29;16.60;99.90
3408;DHT22;1717;50.240;8.406;2022-10-17T03:11:56;16.60;99.90
3408;DHT22;1717;50.240;8.406;2022-10-17T03:14:23;16.50;99.90
3408;DHT22;1717;50.240;8.406;2022-10-17T03:16:50;16.60;99.90
3408;DHT22;1717;50.240;8.406;2022-10-17T03:19:17;16.60;99.90
3408;DHT22;1717;50.240;8.406;2022-10-17T03:21:45;16.60;99.90
3408;DHT22;1717;50.240;8.406;2022-10-17T03:24:12;16.60;99.90
3408;DHT22;1717;50.240;8.406;2022-10-17T03:26:39;16.60;99.90
3408;DHT22;1717;50.240;8.406;2022-10-17T03:29:05;16.50;99.90
3408;DHT22;1717;50.240;8.406;2022-10-17T03:31:32;16.50;99.90
3408;DHT22;1717;50.240;8.406;2022-10-17T03:34:01;16.60;99.90
3408;DHT22;1717;50.240;8.406;2022-10-17T03:36:28;16.50;99.90
3408;DHT22;1717;50.240;8.406;2022-10-17T03:38:56;16.50;99.90
3408;DHT22;1717;50.240;8.406;2022-10-17T03:41:23;16.50;99.90
3408;DHT22;1717;50.240;8.406;2022-10-17T03:43:51;16.50;99.90
3408;DHT22;1717;50.240;8.406;2022-10-17T03:46:18;16.70;99.90
3408;DHT22;1717;50.240;8.406;2022-10-17T03:48:45;16.60;99.90
3408;DHT22;1717;50.240;8.406;2022-10-17T03:51:11;16.60;99.90
3408;DHT22;1717;50.240;8.406;2022-10-17T03:53:38;16.60;99.90
3408;DHT22;1717;50.240;8.406;2022-10-17T03:56:11;16.60;99.90
3408;DHT22;1717;50.240;8.406;2022-10-17T03:58:39;16.60;99.90
3408;DHT22;1717;50.240;8.406;2022-10-17T04:01:07;16.60;99.90
3408;DHT22;1717;50.240;8.406;2022-10-17T04:03:34;16.60;99.90
3408;DHT22;1717;50.240;8.406;2022-10-17T04:06:02;16.70;99.90
3408;DHT22;1717;50.240;8.406;2022-10-17T04:08:30;16.60;99.90
3408;DHT22;1717;50.240;8.406;2022-10-17T04:10:58;16.60;99.90
3408;DHT22;1717;50.240;8.406;2022-10-17T04:13:27;16.60;99.90
3408;DHT22;1717;50.240;8.406;2022-10-17T04:15:55;16.60;99.90
3408;DHT22;1717;50.240;8.406;2022-10-17T04:18:22;16.50;99.90
3408;DHT22;1717;50.240;8.406;2022-10-17T04:20:49;16.50;99.90
3408;DHT22;1717;50.240;8.406;2022-10-17T04:23:16;16.50;99.90
3408;DHT22;1717;50.240;8.406;2022-10-17T04:25:43;16.40;99.90
3408;DHT22;1717;50.240;8.406;2022-10-17T04:28:10;16.50;99.90
3408;DHT22;1717;50.240;8.406;2022-10-17T04:30:38;16.40;99.90
3408;DHT22;1717;50.240;8.406;2022-10-17T04:33:05;16.60;99.90
3408;DHT22;1717;50.240;8.406;2022-10-17T04:35:31;16.50;99.90
3408;DHT22;1717;50.240;8.406;2022-10-17T04:37:58;16.50;99.90
3408;DHT22;1717;50.240;8.406;2022-10-17T04:40:25;16.50;99.90
3408;DHT22;1717;50.240;8.406;2022-10-17T04:42:52;16.50;99.90
3408;DHT22;1717;50.240;8.406;2022-10-17T04:45:19;16.50;99.90
3408;DHT22;1717;50.240;8.406;2022-10-17T04:47:47;16.50;99.90
3408;DHT22;1717;50.240;8.406;2022-10-17T04:50:14;16.60;99.90
3408;DHT22;1717;50.240;8.406;2022-10-17T04:52:41;16.60;99.90
3408;DHT22;1717;50.240;8.406;2022-10-17T04:55:08;16.60;99.90
3408;DHT22;1717;50.240;8.406;2022-10-17T04:57:35;16.60;99.90
3408;DHT22;1717;50.240;8.406;2022-10-17T05:00:03;16.60;99.90
3408;DHT22;1717;50.240;8.406;2022-10-17T05:02:30;16.70;99.90
3408;DHT22;1717;50.240;8.406;2022-10-17T05:04:58;16.70;99.90
3408;DHT22;1717;50.240;8.406;2022-10-17T05:07:24;16.60;99.90
3408;DHT22;1717;50.240;8.406;2022-10-17T05:09:51;16.70;99.90
3408;DHT22;1717;50.240;8.406;2022-10-17T05:12:18;16.60;99.90
3408;DHT22;1717;50.240;8.406;2022-10-17T05:14:45;16.70;99.90
3408;DHT22;1717;50.240;8.406;2022-10-17T05:17:12;16.70;99.90
3408;DHT22;1717;50.240;8.406;2022-10-17T05:19:39;16.60;99.90
3408;DHT22;1717;50.240;8.406;2022-10-17T05:22:07;16.70;99.90
3408;DHT22;1717;50.240;8.406;2022-10-17T05:24:34;16.60;99.90
3408;DHT22;1717;50.240;8.406;2022-10-17T05:27:01;16.60;99.90
3408;DHT22;1717;50.240;8.406;2022-10-17T05:29:28;16.50;99.90
3408;DHT22;1717;50.240;8.406;2022-10-17T05:31:55;16.50;99.90
3408;DHT22;1717;50.240;8.406;2022-10-17T05:34:22;16.50;99.90
3408;DHT22;1717;50.240;8.406;2022-10-17T05:36:49;16.50;99.90
3408;DHT22;1717;50.240;8.406;2022-10-17T05:39:17;16.40;99.90
3408;DHT22;1717;50.240;8.406;2022-10-17T05:41:45;16.40;99.90
3408;DHT22;1717;50.240;8.406;2022-10-17T05:44:12;16.40;99.90
3408;DHT22;1717;50.240;8.406;2022-10-17T05:46:39;16.40;99.90
3408;DHT22;1717;50.240;8.406;2022-10-17T05:49:07;16.40;99.90
3408;DHT22;1717;50.240;8.406;2022-10-17T05:51:34;16.30;99.90
3408;DHT22;1717;50.240;8.406;2022-10-17T05:54:03;16.30;99.90
3408;DHT22;1717;50.240;8.406;2022-10-17T05:56:31;16.30;99.90
3408;DHT22;1717;50.240;8.406;2022-10-17T05:58:58;16.30;99.90
3408;DHT22;1717;50.240;8.406;2022-10-17T06:01:25;16.30;99.90
3408;DHT22;1717;50.240;8.406;2022-10-17T06:03:52;16.30;99.90
3408;DHT22;1717;50.240;8.406;2022-10-17T06:06:19;16.30;99.90
3408;DHT22;1717;50.240;8.406;2022-10-17T06:08:46;16.30;99.90
3408;DHT22;1717;50.240;8.406;2022-10-17T06:11:13;16.40;99.90
3408;DHT22;1717;50.240;8.406;2022-10-17T06:13:41;16.30;99.90
3408;DHT22;1717;50.240;8.406;2022-10-17T06:16:08;16.40;99.90
3408;DHT22;1717;50.240;8.406;2022-10-17T06:18:35;16.40;99.90
3408;DHT22;1717;50.240;8.406;2022-10-17T06:21:03;16.40;99.90
3408;DHT22;1717;50.240;8.406;2022-10-17T06:23:30;16.40;99.90
3408;DHT22;1717;50.240;8.406;2022-10-17T06:25:58;16.50;99.90
3408;DHT22;1717;50.240;8.406;2022-10-17T06:28:25;16.50;99.90
3408;DHT22;1717;50.240;8.406;2022-10-17T06:30:54;16.50;99.90
3408;DHT22;1717;50.240;8.406;2022-10-17T06:33:21;16.60;99.90
3408;DHT22;1717;50.240;8.406;2022-10-17T06:35:50;16.60;99.90
3408;DHT22;1717;50.240;8.406;2022-10-17T06:38:17;16.60;99.90
3408;DHT22;1717;50.240;8.406;2022-10-17T06:40:46;16.60;99.90
3408;DHT22;1717;50.240;8.406;2022-10-17T06:43:13;16.70;99.90
3408;DHT22;1717;50.240;8.406;2022-10-17T06:45:40;16.70;99.90
3408;DHT22;1717;50.240;8.406;2022-10-17T06:48:08;16.70;99.90
3408;DHT22;1717;50.240;8.406;2022-10-17T06:50:35;16.80;99.90
3408;DHT22;1717;50.240;8.406;2022-10-17T06:53:02;16.70;99.90
3408;DHT22;1717;50.240;8.406;2022-10-17T06:55:30;16.70;99.90
3408;DHT22;1717;50.240;8.406;2022-10-17T06:57:57;16.70;99.90
3408;DHT22;1717;50.240;8.406;2022-10-17T07:00:24;16.70;99.90
3408;DHT22;1717;50.240;8.406;2022-10-17T07:02:51;16.70;99.90
3408;DHT22;1717;50.240;8.406;2022-10-17T07:05:19;16.70;99.90
3408;DHT22;1717;50.240;8.406;2022-10-17T07:07:47;16.70;99.90
3408;DHT22;1717;50.240;8.406;2022-10-17T07:10:14;16.70;99.90
3408;DHT22;1717;50.240;8.406;2022-10-17T07:12:41;16.70;99.90
3408;DHT22;1717;50.240;8.406;2022-10-17T07:15:09;16.70;99.90
3408;DHT22;1717;50.240;8.406;2022-10-17T07:17:37;16.70;99.90
3408;DHT22;1717;50.240;8.406;2022-10-17T07:20:04;16.70;99.90
3408;DHT22;1717;50.240;8.406;2022-10-17T07:22:32;16.70;99.90
3408;DHT22;1717;50.240;8.406;2022-10-17T07:24:59;16.70;99.90
3408;DHT22;1717;50.240;8.406;2022-10-17T07:27:26;16.70;99.90
3408;DHT22;1717;50.240;8.406;2022-10-17T07:29:53;16.70;99.90
3408;DHT22;1717;50.240;8.406;2022-10-17T07:32:20;16.70;99.90
3408;DHT22;1717;50.240;8.406;2022-10-17T07:34:47;16.70;99.90
3408;DHT22;1717;50.240;8.406;2022-10-17T07:37:14;16.70;99.90
3408;DHT22;1717;50.240;8.406;2022-10-17T07:39:42;16.70;99.90
3408;DHT22;1717;50.240;8.406;2022-10-17T07:42:09;16.80;99.90
3408;DHT22;1717;50.240;8.406;2022-10-17T07:44:36;16.80;99.90
3408;DHT22;1717;50.240;8.406;2022-10-17T07:47:02;16.80;99.90
3408;DHT22;1717;50.240;8.406;2022-10-17T07:49:29;16.80;99.90
3408;DHT22;1717;50.240;8.406;2022-10-17T07:51:56;16.70;99.90
3408;DHT22;1717;50.240;8.406;2022-10-17T07:54:23;16.80;99.90
3408;DHT22;1717;50.240;8.406;2022-10-17T07:56:52;16.80;99.90
3408;DHT22;1717;50.240;8.406;2022-10-17T07:59:19;16.80;99.90
3408;DHT22;1717;50.240;8.406;2022-10-17T08:01:46;16.80;99.90
3408;DHT22;1717;50.240;8.406;2022-10-17T08:04:13;16.80;99.90
3408;DHT22;1717;50.240;8.406;2022-10-17T08:06:41;16.90;99.90
3408;DHT22;1717;50.240;8.406;2022-10-17T08:09:08;16.90;99.90
3408;DHT22;1717;50.240;8.406;2022-10-17T08:11:35;16.90;99.90
3408;DHT22;1717;50.240;8.406;2022-10-17T08:14:04;17.00;99.90
3408;DHT22;1717;50.240;8.406;2022-10-17T08:16:31;17.00;99.90
3408;DHT22;1717;50.240;8.406;2022-10-17T08:18:58;17.10;99.90
3408;DHT22;1717;50.240;8.406;2022-10-17T08:21:24;17.10;99.90
3408;DHT22;1717;50.240;8.406;2022-10-17T08:23:51;17.20;99.90
3408;DHT22;1717;50.240;8.406;2022-10-17T08:26:19;17.20;99.90
3408;DHT22;1717;50.240;8.406;2022-10-17T08:28:45;17.30;99.90
3408;DHT22;1717;50.240;8.406;2022-10-17T08:31:16;17.30;99.90
3408;DHT22;1717;50.240;8.406;2022-10-17T08:33:44;17.30;99.90
3408;DHT22;1717;50.240;8.406;2022-10-17T08:36:13;17.30;99.90
3408;DHT22;1717;50.240;8.406;2022-10-17T08:38:40;17.40;99.90
3408;DHT22;1717;50.240;8.406;2022-10-17T08:41:13;17.40;99.90
3408;DHT22;1717;50.240;8.406;2022-10-17T08:43:56;17.40;99.90
3408;DHT22;1717;50.240;8.406;2022-10-17T08:46:31;17.50;99.90
3408;DHT22;1717;50.240;8.406;2022-10-17T08:49:01;17.50;99.90
3408;DHT22;1717;50.240;8.406;2022-10-17T08:51:32;17.50;99.90
3408;DHT22;1717;50.240;8.406;2022-10-17T08:54:05;17.50;99.90
3408;DHT22;1717;50.240;8.406;2022-10-17T08:56:39;17.60;99.90
3408;DHT22;1717;50.240;8.406;2022-10-17T08:59:10;17.60;99.90
3408;DHT22;1717;50.240;8.406;2022-10-17T09:01:43;17.60;99.90
3408;DHT22;1717;50.240;8.406;2022-10-17T09:04:43;17.70;99.90
3408;DHT22;1717;50.240;8.406;2022-10-17T09:07:17;17.60;99.90
3408;DHT22;1717;50.240;8.406;2022-10-17T09:09:54;17.70;99.90
3408;DHT22;1717;50.240;8.406;2022-10-17T09:12:29;17.70;99.90
3408;DHT22;1717;50.240;8.406;2022-10-17T09:15:10;17.70;99.90
3408;DHT22;1717;50.240;8.406;2022-10-17T09:17:49;17.70;99.90
3408;DHT22;1717;50.240;8.406;2022-10-17T09:20:20;17.70;99.90
3408;DHT22;1717;50.240;8.406;2022-10-17T09:22:56;17.80;99.90
3408;DHT22;1717;50.240;8.406;2022-10-17T09:25:25;17.80;99.90
3408;DHT22;1717;50.240;8.406;2022-10-17T09:27:55;17.80;99.90
3408;DHT22;1717;50.240;8.406;2022-10-17T09:30:37;17.80;99.90
3408;DHT22;1717;50.240;8.406;2022-10-17T09:33:12;17.80;99.90
3408;DHT22;1717;50.240;8.406;2022-10-17T09:35:40;17.80;99.90
3408;DHT22;1717;50.240;8.406;2022-10-17T09:38:16;17.90;99.90
3408;DHT22;1717;50.240;8.406;2022-10-17T09:40:43;17.90;99.90
3408;DHT22;1717;50.240;8.406;2022-10-17T09:43:12;17.90;99.90
3408;DHT22;1717;50.240;8.406;2022-10-17T09:45:45;17.90;99.90
3408;DHT22;1717;50.240;8.406;2022-10-17T09:48:21;18.00;99.90
3408;DHT22;1717;50.240;8.406;2022-10-17T09:50:51;17.90;99.90
3408;DHT22;1717;50.240;8.406;2022-10-17T09:53:22;17.90;99.90
3408;DHT22;1717;50.240;8.406;2022-10-17T09:55:53;18.00;99.90
3408;DHT22;1717;50.240;8.406;2022-10-17T09:58:21;18.00;99.90
3408;DHT22;1717;50.240;8.406;2022-10-17T10:00:48;17.90;99.90
3408;DHT22;1717;50.240;8.406;2022-10-17T10:03:18;18.00;99.90
3408;DHT22;1717;50.240;8.406;2022-10-17T10:06:12;18.00;99.90
3408;DHT22;1717;50.240;8.406;2022-10-17T10:08:48;18.00;99.90
3408;DHT22;1717;50.240;8.406;2022-10-17T10:11:17;18.00;99.90
3408;DHT22;1717;50.240;8.406;2022-10-17T10:13:46;18.10;99.90
3408;DHT22;1717;50.240;8.406;2022-10-17T10:16:16;18.10;99.90
3408;DHT22;1717;50.240;8.406;2022-10-17T10:18:45;18.20;99.90
3408;DHT22;1717;50.240;8.406;2022-10-17T10:21:14;18.20;99.90
3408;DHT22;1717;50.240;8.406;2022-10-17T10:23:42;18.30;99.90
3408;DHT22;1717;50.240;8.406;2022-10-17T10:26:25;18.30;99.90
3408;DHT22;1717;50.240;8.406;2022-10-17T10:28:56;18.30;99.90
3408;DHT22;1717;50.240;8.406;2022-10-17T10:31:29;18.30;99.90
3408;DHT22;1717;50.240;8.406;2022-10-17T10:34:00;18.30;99.90
3408;DHT22;1717;50.240;8.406;2022-10-17T10:36:47;18.40;99.90
3408;DHT22;1717;50.240;8.406;2022-10-17T10:39:26;18.40;99.90
3408;DHT22;1717;50.240;8.406;2022-10-17T10:41:54;18.40;99.90
3408;DHT22;1717;50.240;8.406;2022-10-17T10:44:25;18.50;99.90
3408;DHT22;1717;50.240;8.406;2022-10-17T10:47:14;18.50;99.90
3408;DHT22;1717;50.240;8.406;2022-10-17T10:49:44;18.50;99.90
3408;DHT22;1717;50.240;8.406;2022-10-17T10:52:21;18.60;99.90
3408;DHT22;1717;50.240;8.406;2022-10-17T10:54:54;18.60;99.90
3408;DHT22;1717;50.240;8.406;2022-10-17T10:57:25;18.60;99.90
3408;DHT22;1717;50.240;8.406;2022-10-17T10:59:59;18.60;99.90
3408;DHT22;1717;50.240;8.406;2022-10-17T11:02:32;18.50;99.90
3408;DHT22;1717;50.240;8.406;2022-10-17T11:05:05;18.60;99.90
3408;DHT22;1717;50.240;8.406;2022-10-17T11:07:37;18.70;99.90
3408;DHT22;1717;50.240;8.406;2022-10-17T11:10:11;18.60;99.90
3408;DHT22;1717;50.240;8.406;2022-10-17T11:12:43;18.70;99.90
3408;DHT22;1717;50.240;8.406;2022-10-17T11:15:19;18.60;99.90
3408;DHT22;1717;50.240;8.406;2022-10-17T11:17:56;18.70;99.90
3408;DHT22;1717;50.240;8.406;2022-10-17T11:20:32;18.70;99.90
3408;DHT22;1717;50.240;8.406;2022-10-17T11:23:11;18.70;99.90
3408;DHT22;1717;50.240;8.406;2022-10-17T11:25:44;18.70;99.90
3408;DHT22;1717;50.240;8.406;2022-10-17T11:28:12;18.70;99.90
3408;DHT22;1717;50.240;8.406;2022-10-17T11:30:45;18.70;99.90
3408;DHT22;1717;50.240;8.406;2022-10-17T11:33:23;18.70;99.90
3408;DHT22;1717;50.240;8.406;2022-10-17T11:35:55;18.70;99.90
3408;DHT22;1717;50.240;8.406;2022-10-17T11:38:28;18.80;99.90
3408;DHT22;1717;50.240;8.406;2022-10-17T11:40:58;18.80;99.90
3408;DHT22;1717;50.240;8.406;2022-10-17T11:43:28;18.80;99.90
3408;DHT22;1717;50.240;8.406;2022-10-17T11:46:00;18.80;99.90
3408;DHT22;1717;50.240;8.406;2022-10-17T11:48:33;18.80;99.90
3408;DHT22;1717;50.240;8.406;2022-10-17T11:51:07;18.80;99.90
3408;DHT22;1717;50.240;8.406;2022-10-17T11:53:44;18.90;99.90
3408;DHT22;1717;50.240;8.406;2022-10-17T11:56:15;18.90;99.90
3408;DHT22;1717;50.240;8.406;2022-10-17T11:58:51;18.90;99.90
3408;DHT22;1717;50.240;8.406;2022-10-17T12:01:26;19.00;99.90
3408;DHT22;1717;50.240;8.406;2022-10-17T12:04:10;19.00;99.90
3408;DHT22;1717;50.240;8.406;2022-10-17T12:07:07;19.10;99.90
3408;DHT22;1717;50.240;8.406;2022-10-17T12:09:42;19.10;99.90
3408;DHT22;1717;50.240;8.406;2022-10-17T12:12:23;19.20;99.90
3408;DHT22;1717;50.240;8.406;2022-10-17T12:14:52;19.10;99.90
3408;DHT22;1717;50.240;8.406;2022-10-17T12:17:27;19.20;99.90
3408;DHT22;1717;50.240;8.406;2022-10-17T12:20:16;19.20;99.90
3408;DHT22;1717;50.240;8.406;2022-10-17T12:22:52;19.20;99.90
3408;DHT22;1717;50.240;8.406;2022-10-17T12:25:22;19.30;99.90
3408;DHT22;1717;50.240;8.406;2022-10-17T12:28:06;19.30;99.90
3408;DHT22;1717;50.240;8.406;2022-10-17T12:30:36;19.30;99.90
3408;DHT22;1717;50.240;8.406;2022-10-17T12:33:05;19.40;99.90
3408;DHT22;1717;50.240;8.406;2022-10-17T12:35:38;19.40;99.90
3408;DHT22;1717;50.240;8.406;2022-10-17T12:38:20;19.40;99.90
3408;DHT22;1717;50.240;8.406;2022-10-17T12:40:59;19.50;99.90
3408;DHT22;1717;50.240;8.406;2022-10-17T12:43:56;19.50;99.90
3408;DHT22;1717;50.240;8.406;2022-10-17T12:46:45;19.50;99.90
3408;DHT22;1717;50.240;8.406;2022-10-17T12:49:38;19.60;99.90
3408;DHT22;1717;50.240;8.406;2022-10-17T12:52:18;19.60;99.90
3408;DHT22;1717;50.240;8.406;2022-10-17T12:54:55;19.70;99.90
3408;DHT22;1717;50.240;8.406;2022-10-17T12:57:29;19.70;99.90
3408;DHT22;1717;50.240;8.406;2022-10-17T12:59:59;19.80;99.90
3408;DHT22;1717;50.240;8.406;2022-10-17T13:02:28;19.80;99.90
3408;DHT22;1717;50.240;8.406;2022-10-17T13:05:05;19.90;99.90
3408;DHT22;1717;50.240;8.406;2022-10-17T13:07:34;19.90;99.90
3408;DHT22;1717;50.240;8.406;2022-10-17T13:10:03;19.90;99.90
3408;DHT22;1717;50.240;8.406;2022-10-17T13:12:33;19.90;99.90
3408;DHT22;1717;50.240;8.406;2022-10-17T13:15:04;19.90;99.90
3408;DHT22;1717;50.240;8.406;2022-10-17T13:17:33;20.00;99.90
3408;DHT22;1717;50.240;8.406;2022-10-17T13:20:01;20.10;99.90
3408;DHT22;1717;50.240;8.406;2022-10-17T13:22:29;20.00;99.90
3408;DHT22;1717;50.240;8.406;2022-10-17T13:25:13;20.10;99.90
3408;DHT22;1717;50.240;8.406;2022-10-17T13:27:40;20.10;99.90
3408;DHT22;1717;50.240;8.406;2022-10-17T13:30:25;20.10;99.90
3408;DHT22;1717;50.240;8.406;2022-10-17T13:32:53;20.20;99.90
3408;DHT22;1717;50.240;8.406;2022-10-17T13:35:26;20.30;99.90
3408;DHT22;1717;50.240;8.406;2022-10-17T13:37:54;20.30;99.90
3408;DHT22;1717;50.240;8.406;2022-10-17T13:40:25;20.40;99.90
3408;DHT22;1717;50.240;8.406;2022-10-17T13:42:54;20.40;99.90
3408;DHT22;1717;50.240;8.406;2022-10-17T13:45:29;20.40;99.90
3408;DHT22;1717;50.240;8.406;2022-10-17T13:47:57;20.50;99.90
3408;DHT22;1717;50.240;8.406;2022-10-17T13:50:34;20.50;99.90
3408;DHT22;1717;50.240;8.406;2022-10-17T13:53:19;20.60;99.90
3408;DHT22;1717;50.240;8.406;2022-10-17T13:55:53;20.60;99.90
3408;DHT22;1717;50.240;8.406;2022-10-17T13:58:20;20.60;99.90
3408;DHT22;1717;50.240;8.406;2022-10-17T14:00:48;20.70;99.90
3408;DHT22;1717;50.240;8.406;2022-10-17T14:03:17;20.70;99.90
3408;DHT22;1717;50.240;8.406;2022-10-17T14:06:10;20.80;99.90
3408;DHT22;1717;50.240;8.406;2022-10-17T14:08:38;20.80;99.90
3408;DHT22;1717;50.240;8.406;2022-10-17T14:11:25;20.80;99.90
3408;DHT22;1717;50.240;8.406;2022-10-17T14:13:54;20.90;99.90
3408;DHT22;1717;50.240;8.406;2022-10-17T14:16:23;20.90;99.90
3408;DHT22;1717;50.240;8.406;2022-10-17T14:18:51;21.00;99.90
3408;DHT22;1717;50.240;8.406;2022-10-17T14:21:21;21.00;99.90
3408;DHT22;1717;50.240;8.406;2022-10-17T14:24:11;21.00;99.90
3408;DHT22;1717;50.240;8.406;2022-10-17T14:26:48;21.00;99.90
3408;DHT22;1717;50.240;8.406;2022-10-17T14:29:22;21.00;99.90
3408;DHT22;1717;50.240;8.406;2022-10-17T14:31:49;21.00;99.90
3408;DHT22;1717;50.240;8.406;2022-10-17T14:34:26;21.00;99.90
3408;DHT22;1717;50.240;8.406;2022-10-17T14:36:53;20.90;99.90
3408;DHT22;1717;50.240;8.406;2022-10-17T14:39:22;21.00;99.90
3408;DHT22;1717;50.240;8.406;2022-10-17T14:41:51;21.00;99.90
3408;DHT22;1717;50.240;8.406;2022-10-17T14:44:25;21.10;99.90
3408;DHT22;1717;50.240;8.406;2022-10-17T14:46:56;21.00;99.90
3408;DHT22;1717;50.240;8.406;2022-10-17T14:49:33;21.10;99.90
3408;DHT22;1717;50.240;8.406;2022-10-17T14:52:30;21.20;99.90
3408;DHT22;1717;50.240;8.406;2022-10-17T14:54:58;21.10;99.90
3408;DHT22;1717;50.240;8.406;2022-10-17T14:57:39;21.20;99.90
3408;DHT22;1717;50.240;8.406;2022-10-17T15:00:08;21.20;99.90
3408;DHT22;1717;50.240;8.406;2022-10-17T15:02:36;21.20;99.90
3408;DHT22;1717;50.240;8.406;2022-10-17T15:05:03;21.20;99.90
3408;DHT22;1717;50.240;8.406;2022-10-17T15:07:30;21.30;99.90
3408;DHT22;1717;50.240;8.406;2022-10-17T15:09:57;21.30;99.90
3408;DHT22;1717;50.240;8.406;2022-10-17T15:12:25;21.20;99.90
3408;DHT22;1717;50.240;8.406;2022-10-17T15:14:53;21.20;99.90
3408;DHT22;1717;50.240;8.406;2022-10-17T15:17:23;21.30;99.90
3408;DHT22;1717;50.240;8.406;2022-10-17T15:19:50;21.30;99.90
3408;DHT22;1717;50.240;8.406;2022-10-17T15:22:17;21.30;99.90
3408;DHT22;1717;50.240;8.406;2022-10-17T15:24:45;21.30;99.90
3408;DHT22;1717;50.240;8.406;2022-10-17T15:27:16;21.30;99.90
3408;DHT22;1717;50.240;8.406;2022-10-17T15:29:43;21.30;99.90
3408;DHT22;1717;50.240;8.406;2022-10-17T15:32:12;21.30;99.90
3408;DHT22;1717;50.240;8.406;2022-10-17T15:34:39;21.30;99.90
3408;DHT22;1717;50.240;8.406;2022-10-17T15:37:09;21.30;99.90
3408;DHT22;1717;50.240;8.406;2022-10-17T15:39:40;21.30;99.90
3408;DHT22;1717;50.240;8.406;2022-10-17T15:42:08;21.30;99.90
3408;DHT22;1717;50.240;8.406;2022-10-17T15:44:36;21.20;99.90
3408;DHT22;1717;50.240;8.406;2022-10-17T15:47:03;21.20;99.90
3408;DHT22;1717;50.240;8.406;2022-10-17T15:49:31;21.20;99.90
3408;DHT22;1717;50.240;8.406;2022-10-17T15:51:59;21.10;99.90
3408;DHT22;1717;50.240;8.406;2022-10-17T15:54:26;21.10;99.90
3408;DHT22;1717;50.240;8.406;2022-10-17T15:56:54;21.10;99.90
3408;DHT22;1717;50.240;8.406;2022-10-17T15:59:26;21.10;99.90
3408;DHT22;1717;50.240;8.406;2022-10-17T16:01:53;21.00;99.90
3408;DHT22;1717;50.240;8.406;2022-10-17T16:04:20;20.90;99.90
3408;DHT22;1717;50.240;8.406;2022-10-17T16:06:52;20.70;99.90
3408;DHT22;1717;50.240;8.406;2022-10-17T16:09:19;20.70;99.90
3408;DHT22;1717;50.240;8.406;2022-10-17T16:11:46;20.60;99.90
3408;DHT22;1717;50.240;8.406;2022-10-17T16:14:14;20.60;99.90
3408;DHT22;1717;50.240;8.406;2022-10-17T16:16:42;20.40;99.90
3408;DHT22;1717;50.240;8.406;2022-10-17T16:19:09;20.40;99.90
3408;DHT22;1717;50.240;8.406;2022-10-17T16:21:38;20.40;99.90
3408;DHT22;1717;50.240;8.406;2022-10-17T16:24:09;20.10;99.90
3408;DHT22;1717;50.240;8.406;2022-10-17T16:26:36;20.20;99.90
3408;DHT22;1717;50.240;8.406;2022-10-17T16:29:03;20.20;99.90